Aviation Digital Data Service (ADDS)

Output produced by METARs form (1303 UTC 17 January 2017)
found at http://aviationweather.gov/adds/metars/
 
KISO 171138Z 1712/1812 23005KT P6SM SCT007 OVC010 
     TEMPO 1712/1715 5SM BR BKN008 
     FM171800 22008KT P6SM SCT015 BKN080 
     FM180600 22009KT 6SM -SHRA SCT030 BKN050 WS020/25040KT AMD LTD TO CLD VIS AND WIND